Time;durP1;ratioP1;P1;durP2;ratioP2;P2;SDS_P1;SDS_P2;PMS_P1;PMS_P2;Temp;Humidity;BMP_temperature;BMP_pressure;BME280_temperature;BME280_humidity;BME280_pressure;Samples;Min_cycle;Max_cycle;Signal;HPM_P1;HPM_P2
2023/06/28 00:01:38;;;;;;;4.45;1.92;;;;;;;17.91;100.00;98892.25;5031397;28;20025;-75
2023/06/28 00:04:05;;;;;;;3.80;2.10;;;;;;;17.92;100.00;98897.47;5023914;28;20030;-75
2023/06/28 00:06:31;;;;;;;2.67;1.80;;;;;;;18.02;100.00;98906.94;5032307;28;20025;-75
2023/06/28 00:08:57;;;;;;;5.47;1.67;;;;;;;18.02;100.00;98896.78;5020809;28;20026;-75
2023/06/28 00:11:22;;;;;;;6.90;2.05;;;;;;;17.99;100.00;98897.31;5022688;28;20091;-75
2023/06/28 00:13:48;;;;;;;3.50;1.52;;;;;;;18.03;100.00;98892.19;5005089;28;20467;-76
2023/06/28 00:16:14;;;;;;;4.80;1.80;;;;;;;18.03;100.00;98906.69;5042920;28;20025;-76
2023/06/28 00:18:40;;;;;;;6.53;1.80;;;;;;;18.00;100.00;98914.56;5049943;28;20101;-76
2023/06/28 00:21:05;;;;;;;4.32;1.55;;;;;;;17.89;100.00;98898.00;5031578;28;20754;-75
2023/06/28 00:23:31;;;;;;;7.22;1.75;;;;;;;17.95;100.00;98915.31;5020643;28;21197;-76
2023/06/28 00:25:56;;;;;;;7.78;1.40;;;;;;;17.95;100.00;98921.63;5033593;28;20025;-75
2023/06/28 00:28:21;;;;;;;3.00;1.33;;;;;;;17.95;100.00;98924.34;5010524;28;20475;-76
2023/06/28 00:30:46;;;;;;;4.10;1.25;;;;;;;17.80;100.00;98907.66;5034352;28;20068;-75
2023/06/28 00:33:12;;;;;;;5.22;1.58;;;;;;;17.71;100.00;98904.50;5022799;28;20040;-75
2023/06/28 00:35:37;;;;;;;6.18;1.83;;;;;;;17.86;100.00;98930.47;5012459;28;20100;-76
2023/06/28 00:38:03;;;;;;;4.53;1.67;;;;;;;17.73;100.00;98901.50;5015109;28;20026;-75
2023/06/28 00:40:28;;;;;;;4.35;1.60;;;;;;;17.76;100.00;98920.16;5025257;28;20467;-75
2023/06/28 00:42:53;;;;;;;4.03;1.83;;;;;;;17.87;100.00;98932.16;5032902;28;20021;-76
2023/06/28 00:45:18;;;;;;;4.28;1.40;;;;;;;17.79;100.00;98918.81;5032069;28;20030;-75
2023/06/28 00:47:44;;;;;;;3.50;1.77;;;;;;;17.81;100.00;98924.91;5033000;28;20789;-75
2023/06/28 00:50:10;;;;;;;5.30;1.50;;;;;;;17.81;100.00;98923.00;5031615;28;20029;-75
2023/06/28 00:52:36;;;;;;;4.53;1.48;;;;;;;17.66;100.00;98914.53;5030543;28;20028;-75
2023/06/28 00:55:02;;;;;;;4.20;1.60;;;;;;;17.68;100.00;98932.34;5027677;28;20036;-75
2023/06/28 00:57:27;;;;;;;6.38;1.27;;;;;;;17.65;100.00;98926.53;5027460;28;20104;-75
2023/06/28 00:59:55;;;;;;;5.00;1.73;;;;;;;17.70;100.00;98938.38;5012526;28;20033;-75
2023/06/28 01:02:21;;;;;;;3.28;1.48;;;;;;;17.58;100.00;98929.44;5039435;28;20391;-75
2023/06/28 01:04:46;;;;;;;4.28;1.60;;;;;;;17.41;100.00;98910.22;5018586;28;20032;-75
2023/06/28 01:07:13;;;;;;;5.38;1.50;;;;;;;17.60;100.00;98937.38;5032218;28;20340;-75
2023/06/28 01:09:40;;;;;;;9.43;2.03;;;;;;;17.43;100.00;98920.94;5027599;28;20072;-76
2023/06/28 01:12:06;;;;;;;5.00;1.85;;;;;;;17.51;100.00;98935.03;5027049;28;20028;-75
2023/06/28 01:14:32;;;;;;;4.30;1.42;;;;;;;17.52;100.00;98941.34;5013391;28;20556;-75
2023/06/28 01:16:57;;;;;;;8.68;1.80;;;;;;;17.47;100.00;98927.56;5011285;28;20048;-75
2023/06/28 01:19:25;;;;;;;3.28;1.67;;;;;;;17.59;100.00;98949.41;5033449;28;20053;-75
2023/06/28 01:21:54;;;;;;;5.97;1.75;;;;;;;17.61;100.00;98950.81;5027848;28;20029;-75
2023/06/28 01:24:21;;;;;;;6.47;2.17;;;;;;;17.49;100.00;98937.19;5030257;28;20110;-75
2023/06/28 01:26:51;;;;;;;6.28;1.90;;;;;;;17.44;100.00;98939.00;5005400;28;20044;-75
2023/06/28 01:29:21;;;;;;;5.97;1.85;;;;;;;17.36;100.00;98947.59;5022764;28;20762;-76
2023/06/28 01:31:48;;;;;;;4.85;2.25;;;;;;;17.11;100.00;98935.09;5033831;28;20145;-75
2023/06/28 01:34:14;;;;;;;4.47;1.65;;;;;;;17.02;100.00;98931.91;5033504;28;20124;-75
2023/06/28 01:36:39;;;;;;;8.07;2.05;;;;;;;17.24;100.00;98964.06;5018682;28;20109;-76
2023/06/28 01:39:05;;;;;;;6.72;2.22;;;;;;;17.03;100.00;98944.50;5030707;28;20040;-76
2023/06/28 01:41:32;;;;;;;6.80;2.35;;;;;;;17.01;100.00;98951.28;5021951;28;20021;-76
2023/06/28 01:43:57;;;;;;;4.55;1.73;;;;;;;16.96;100.00;98942.97;5026815;28;20034;-75
2023/06/28 01:46:23;;;;;;;4.72;1.90;;;;;;;16.94;100.00;98967.00;5030119;28;20029;-76
2023/06/28 01:48:48;;;;;;;5.80;1.88;;;;;;;16.75;100.00;98941.69;5020434;28;20060;-76
2023/06/28 01:51:15;;;;;;;5.38;1.88;;;;;;;16.77;100.00;98954.06;5039658;28;20077;-76
2023/06/28 01:53:40;;;;;;;7.55;2.15;;;;;;;16.63;100.00;98938.94;5050383;28;20515;-76
2023/06/28 01:56:05;;;;;;;11.00;2.35;;;;;;;16.69;100.00;98948.94;5048882;28;20029;-76
2023/06/28 01:58:30;;;;;;;3.38;1.80;;;;;;;16.59;100.00;98943.25;5037165;28;20067;-75
2023/06/28 02:00:56;;;;;;;13.48;1.80;;;;;;;16.56;100.00;98946.47;5032050;28;20037;-75
2023/06/28 02:03:21;;;;;;;4.50;1.67;;;;;;;16.47;100.00;98940.50;5030576;28;20431;-75
2023/06/28 02:05:46;;;;;;;5.40;1.67;;;;;;;16.33;100.00;98929.00;5013328;28;20033;-75
2023/06/28 02:08:12;;;;;;;4.38;1.80;;;;;;;16.38;100.00;98942.78;5014318;28;20037;-75
2023/06/28 02:10:37;;;;;;;2.78;1.92;;;;;;;16.32;100.00;98930.09;5022677;28;20113;-74
2023/06/28 02:13:02;;;;;;;5.78;2.03;;;;;;;16.45;100.00;98939.91;5031060;28;20023;-74
2023/06/28 02:15:27;;;;;;;4.60;2.00;;;;;;;16.39;100.00;98936.25;5024248;28;20100;-74
2023/06/28 02:17:56;;;;;;;3.00;1.88;;;;;;;16.49;100.00;98937.56;5032961;28;20144;-74
2023/06/28 02:20:21;;;;;;;7.03;1.98;;;;;;;16.44;100.00;98933.63;5024118;28;20033;-75
2023/06/28 02:22:47;;;;;;;8.75;2.47;;;;;;;16.18;100.00;98901.34;5027809;28;20541;-74
2023/06/28 02:25:12;;;;;;;3.63;2.28;;;;;;;16.38;100.00;98934.59;5020072;28;20391;-74
2023/06/28 02:27:37;;;;;;;4.10;1.70;;;;;;;16.24;100.00;98922.22;5018224;28;20025;-75
2023/06/28 02:30:03;;;;;;;4.22;1.70;;;;;;;16.13;100.00;98923.91;5017603;28;20452;-74
2023/06/28 02:32:31;;;;;;;4.10;1.90;;;;;;;16.26;100.00;98939.22;5030155;28;20033;-74
2023/06/28 02:34:57;;;;;;;9.48;1.90;;;;;;;16.32;100.00;98953.81;5005529;28;20352;-74
2023/06/28 02:37:23;;;;;;;8.50;2.10;;;;;;;16.35;100.00;98948.72;5030794;28;20033;-74
2023/06/28 02:39:49;;;;;;;4.78;2.15;;;;;;;16.39;100.00;98947.16;5078289;22;20041;-61
2023/06/28 02:42:14;;;;;;;2.92;1.80;;;;;;;16.46;100.00;98944.31;5020625;28;20033;-61
2023/06/28 02:44:39;;;;;;;9.30;1.80;;;;;;;16.47;100.00;98934.22;5032765;28;20115;-60
2023/06/28 02:47:05;;;;;;;5.25;1.65;;;;;;;16.48;100.00;98935.88;5027071;28;20600;-60
2023/06/28 02:49:31;;;;;;;4.55;2.10;;;;;;;16.44;100.00;98941.81;5042103;28;20493;-61
2023/06/28 02:51:56;;;;;;;2.83;1.80;;;;;;;16.36;100.00;98942.19;5033614;28;20025;-61
2023/06/28 02:54:22;;;;;;;3.88;2.00;;;;;;;16.30;100.00;98940.41;5046121;28;20037;-60
2023/06/28 02:56:47;;;;;;;4.88;1.98;;;;;;;16.28;100.00;98941.72;5032283;28;20029;-60
2023/06/28 02:59:12;;;;;;;3.45;1.60;;;;;;;16.36;100.00;98944.91;5024022;28;20033;-60
2023/06/28 03:01:38;;;;;;;5.80;2.03;;;;;;;16.38;100.00;98948.25;5021547;28;20184;-60
2023/06/28 03:04:03;;;;;;;4.35;2.00;;;;;;;16.39;100.00;98949.91;5026325;28;20021;-60
2023/06/28 03:06:30;;;;;;;4.57;2.08;;;;;;;16.42;100.00;98951.31;5027200;28;20491;-60
2023/06/28 03:08:55;;;;;;;6.25;2.30;;;;;;;16.40;100.00;98951.56;5030199;28;20561;-60
2023/06/28 03:11:21;;;;;;;7.13;1.90;;;;;;;16.47;100.00;98945.97;5030756;28;20064;-60
2023/06/28 03:13:46;;;;;;;3.95;1.83;;;;;;;16.48;100.00;98949.53;5031261;28;20030;-60
2023/06/28 03:16:11;;;;;;;5.50;2.25;;;;;;;16.49;100.00;98954.78;5030047;28;20025;-60
2023/06/28 03:18:37;;;;;;;6.97;1.80;;;;;;;16.49;100.00;98956.69;5030394;28;20048;-60
2023/06/28 03:21:03;;;;;;;5.55;2.00;;;;;;;16.47;100.00;98964.28;5025432;28;20029;-60
2023/06/28 03:23:28;;;;;;;6.22;2.15;;;;;;;16.42;100.00;98963.06;5046315;28;20034;-60
2023/06/28 03:25:54;;;;;;;4.03;2.05;;;;;;;16.44;100.00;98966.41;5030350;28;20045;-61
2023/06/28 03:28:19;;;;;;;5.22;1.90;;;;;;;16.47;100.00;98967.00;5025368;28;20064;-60
2023/06/28 03:30:44;;;;;;;4.38;2.63;;;;;;;16.47;100.00;98961.53;5037902;28;20029;-60
2023/06/28 03:33:10;;;;;;;3.08;1.95;;;;;;;16.44;100.00;98960.94;5019695;28;20505;-60
2023/06/28 03:35:35;;;;;;;5.95;2.08;;;;;;;16.40;100.00;98958.91;5030367;28;20021;-60
2023/06/28 03:38:01;;;;;;;7.07;2.28;;;;;;;16.38;100.00;98959.16;5029434;28;20120;-61
2023/06/28 03:40:28;;;;;;;4.95;2.17;;;;;;;16.40;100.00;98961.66;5029659;28;20060;-61
2023/06/28 03:42:53;;;;;;;6.28;2.30;;;;;;;16.37;100.00;98954.78;5025486;28;20455;-61
2023/06/28 03:45:19;;;;;;;10.77;2.42;;;;;;;16.36;100.00;98955.00;5022010;28;20049;-61
2023/06/28 03:47:44;;;;;;;3.30;1.98;;;;;;;16.32;100.00;98954.66;5029394;28;20033;-60
2023/06/28 03:50:10;;;;;;;6.50;2.33;;;;;;;16.29;100.00;98963.31;5025074;28;20022;-61
2023/06/28 03:52:36;;;;;;;3.97;2.38;;;;;;;16.30;100.00;98967.72;5045448;28;20461;-61
2023/06/28 03:55:02;;;;;;;5.35;2.28;;;;;;;16.33;100.00;98961.78;5027993;28;20056;-60
2023/06/28 03:57:28;;;;;;;11.07;2.67;;;;;;;16.33;100.00;98967.25;5033099;28;20033;-69
2023/06/28 03:59:54;;;;;;;4.30;2.63;;;;;;;16.29;100.00;98967.94;5024758;28;20037;-72
2023/06/28 04:02:20;;;;;;;7.68;2.63;;;;;;;16.26;100.00;98974.69;5027504;28;20025;-67
2023/06/28 04:04:46;;;;;;;5.55;2.30;;;;;;;16.20;100.00;98964.75;5026520;28;20496;-67
2023/06/28 04:07:12;;;;;;;7.53;2.40;;;;;;;16.09;100.00;98971.03;5031388;28;20025;-66
2023/06/28 04:09:38;;;;;;;4.50;2.50;;;;;;;16.10;100.00;98969.94;5028002;28;20109;-66
2023/06/28 04:12:04;;;;;;;5.10;2.50;;;;;;;16.03;100.00;98967.31;5030297;28;20117;-66
2023/06/28 04:14:29;;;;;;;10.73;2.63;;;;;;;16.03;100.00;98978.22;5021440;28;20116;-66
2023/06/28 04:16:55;;;;;;;6.18;2.40;;;;;;;16.03;100.00;98977.41;5028617;28;20029;-66
2023/06/28 04:19:21;;;;;;;5.20;2.40;;;;;;;16.10;100.00;98984.41;5026479;28;20025;-67
2023/06/28 04:21:47;;;;;;;4.80;2.50;;;;;;;16.02;100.00;98987.50;5040877;28;20032;-66
2023/06/28 04:24:12;;;;;;;7.95;2.45;;;;;;;15.99;100.00;98991.53;5025703;28;20092;-67
2023/06/28 04:26:38;;;;;;;3.92;2.28;;;;;;;16.03;100.00;98999.22;5030858;28;20113;-66
2023/06/28 04:29:03;;;;;;;8.43;2.50;;;;;;;16.02;100.00;98986.66;5026527;28;20117;-66
2023/06/28 04:31:29;;;;;;;6.82;2.47;;;;;;;16.09;100.00;98977.31;5039294;28;20035;-66
2023/06/28 04:33:57;;;;;;;4.63;2.40;;;;;;;16.16;100.00;98985.38;5028602;28;20068;-66
2023/06/28 04:36:26;;;;;;;4.38;2.42;;;;;;;16.19;100.00;98980.28;5028983;28;20025;-65
2023/06/28 04:38:52;;;;;;;8.52;2.40;;;;;;;16.27;100.00;98975.53;5029098;28;20025;-66
2023/06/28 04:41:19;;;;;;;4.82;2.40;;;;;;;16.34;100.00;98989.91;5030096;28;20029;-66
2023/06/28 04:43:45;;;;;;;6.18;2.20;;;;;;;16.42;100.00;98971.25;5037996;28;20033;-66
2023/06/28 04:46:11;;;;;;;6.13;2.45;;;;;;;16.44;100.00;98984.69;5027913;28;20491;-66
2023/06/28 04:48:39;;;;;;;4.95;1.80;;;;;;;16.50;100.00;98986.47;5029950;28;20017;-66
2023/06/28 04:51:04;;;;;;;4.25;2.00;;;;;;;16.47;100.00;98975.19;5029124;28;20035;-65
2023/06/28 04:53:30;;;;;;;6.03;2.13;;;;;;;16.55;100.00;98981.13;5031570;28;20112;-61
2023/06/28 04:55:55;;;;;;;4.50;1.88;;;;;;;16.57;100.00;98975.44;5034404;28;20029;-61
2023/06/28 04:58:22;;;;;;;4.90;2.38;;;;;;;16.60;100.00;98980.41;5027955;28;20112;-61
2023/06/28 05:00:47;;;;;;;4.85;2.30;;;;;;;16.63;100.00;98969.00;5038687;28;20033;-60
2023/06/28 05:03:15;;;;;;;5.97;2.20;;;;;;;16.65;100.00;98977.81;5030987;28;20032;-61
2023/06/28 05:05:41;;;;;;;5.20;2.03;;;;;;;16.68;100.00;98977.31;5029407;28;20295;-61
2023/06/28 05:08:10;;;;;;;5.18;1.73;;;;;;;16.71;100.00;98968.63;5036414;28;20036;-63
2023/06/28 05:10:36;;;;;;;6.25;2.40;;;;;;;16.76;100.00;98965.19;5036867;28;20036;-62
2023/06/28 05:13:02;;;;;;;4.15;2.33;;;;;;;16.89;100.00;98973.16;5032367;28;20025;-61
2023/06/28 05:15:32;;;;;;;6.68;2.60;;;;;;;16.92;100.00;98971.84;5039017;28;20100;-61
2023/06/28 05:17:58;;;;;;;4.55;2.42;;;;;;;16.96;100.00;98970.31;5036204;28;20112;-61
2023/06/28 05:20:24;;;;;;;8.23;2.53;;;;;;;16.96;100.00;98976.59;5048025;28;20412;-57
2023/06/28 05:22:50;;;;;;;5.10;2.65;;;;;;;17.00;100.00;98972.34;5026064;28;20037;-61
2023/06/28 05:25:16;;;;;;;7.28;2.50;;;;;;;17.10;100.00;98974.44;5032451;28;20033;-57
2023/06/28 05:27:43;;;;;;;10.05;2.67;;;;;;;17.26;100.00;98967.38;5027204;28;20021;-57
2023/06/28 05:30:09;;;;;;;6.25;2.80;;;;;;;17.23;100.00;98963.22;5032527;28;20026;-57
2023/06/28 05:32:41;;;;;;;5.88;2.92;;;;;;;17.41;100.00;98969.59;5024040;28;20027;-57
2023/06/28 05:35:06;;;;;;;6.60;2.78;;;;;;;17.50;100.00;98962.63;5041955;28;20041;-57
2023/06/28 05:37:32;;;;;;;4.28;2.22;;;;;;;17.59;100.00;98969.38;5026091;28;20045;-57
2023/06/28 05:39:57;;;;;;;10.40;2.65;;;;;;;17.62;100.00;98966.16;5032284;28;20137;-57
2023/06/28 05:42:23;;;;;;;5.65;2.20;;;;;;;17.71;100.00;98961.97;5032515;28;20048;-57
2023/06/28 05:44:48;;;;;;;6.82;2.30;;;;;;;17.77;100.00;98960.13;5026877;28;20025;-57
2023/06/28 05:47:14;;;;;;;6.95;2.30;;;;;;;17.82;100.00;98953.97;5027424;28;20030;-57
2023/06/28 05:49:41;;;;;;;5.05;2.30;;;;;;;17.93;100.00;98959.34;5032306;28;20040;-57
2023/06/28 05:52:07;;;;;;;4.88;2.58;;;;;;;17.99;100.00;98957.53;5050076;28;20025;-57
2023/06/28 05:54:32;;;;;;;3.53;2.10;;;;;;;17.92;100.00;98951.38;5031924;28;20108;-56
2023/06/28 05:56:58;;;;;;;4.63;1.95;;;;;;;17.98;100.00;98961.34;5032645;28;20120;-57
2023/06/28 05:59:23;;;;;;;8.38;2.80;;;;;;;18.03;100.00;98957.88;5029028;28;20025;-57
2023/06/28 06:01:49;;;;;;;7.80;2.40;;;;;;;18.03;100.00;98963.34;5026144;28;20033;-56
2023/06/28 06:04:14;;;;;;;10.52;2.33;;;;;;;18.10;100.00;98958.53;5043864;28;20052;-63
2023/06/28 06:06:40;;;;;;;10.52;2.00;;;;;;;18.08;100.00;98961.53;5030869;28;20044;-63
2023/06/28 06:09:06;;;;;;;6.55;2.38;;;;;;;17.94;100.00;98968.38;5030478;28;20064;-63
2023/06/28 06:11:31;;;;;;;10.57;2.72;;;;;;;17.83;100.00;98961.91;5028947;28;20026;-65
2023/06/28 06:13:56;;;;;;;7.70;2.80;;;;;;;17.83;100.00;98961.09;5037279;28;20025;-64
2023/06/28 06:16:22;;;;;;;7.05;2.60;;;;;;;17.78;100.00;98960.97;5038369;28;20108;-72
2023/06/28 06:18:47;;;;;;;6.03;2.40;;;;;;;17.74;100.00;98961.47;5029861;28;20066;-63
2023/06/28 06:21:13;;;;;;;6.47;2.30;;;;;;;17.83;100.00;98958.34;5020092;28;20025;-67
2023/06/28 06:23:38;;;;;;;6.20;3.00;;;;;;;17.87;100.00;98956.78;5030921;28;20032;-67
2023/06/28 06:26:03;;;;;;;8.57;2.55;;;;;;;18.04;100.00;98967.75;5030254;28;20534;-67
2023/06/28 06:28:29;;;;;;;7.72;2.40;;;;;;;18.01;100.00;98968.25;5046104;28;20028;-67
2023/06/28 06:30:54;;;;;;;10.95;2.72;;;;;;;18.04;100.00;98957.63;5023029;28;20048;-66
2023/06/28 06:33:20;;;;;;;5.57;2.28;;;;;;;18.14;100.00;98966.00;5048915;28;20500;-67
2023/06/28 06:35:45;;;;;;;4.13;2.10;;;;;;;18.27;100.00;98964.84;5029905;28;20044;-67
2023/06/28 06:38:10;;;;;;;4.95;2.63;;;;;;;18.34;100.00;98968.25;5029669;28;20116;-67
2023/06/28 06:40:36;;;;;;;4.75;2.50;;;;;;;18.44;100.00;98970.28;5046676;28;20095;-67
2023/06/28 06:43:01;;;;;;;6.47;2.40;;;;;;;18.52;100.00;98969.91;5026399;28;20156;-68
2023/06/28 06:45:26;;;;;;;3.80;2.40;;;;;;;18.45;100.00;98971.16;5034388;28;20021;-67
2023/06/28 06:47:52;;;;;;;4.72;2.55;;;;;;;18.49;100.00;98975.84;5029761;28;20029;-67
2023/06/28 06:50:18;;;;;;;9.57;2.70;;;;;;;18.54;100.00;98953.19;5030395;28;20037;-67
2023/06/28 06:52:44;;;;;;;8.13;2.35;;;;;;;18.74;100.00;98974.59;5031365;28;20032;-67
2023/06/28 06:55:09;;;;;;;5.00;1.98;;;;;;;18.60;100.00;98977.69;5027767;28;20048;-64
2023/06/28 06:57:35;;;;;;;6.22;1.95;;;;;;;18.76;100.00;98973.28;5031579;28;20377;-64
2023/06/28 07:00:01;;;;;;;5.90;2.10;;;;;;;18.81;100.00;98972.50;5027491;28;20029;-64
2023/06/28 07:02:27;;;;;;;5.70;2.30;;;;;;;19.01;100.00;98975.53;5022108;28;20445;-64
2023/06/28 07:04:53;;;;;;;5.55;2.45;;;;;;;18.98;100.00;98978.78;5031523;28;20076;-64
2023/06/28 07:07:18;;;;;;;4.75;2.20;;;;;;;19.28;100.00;98980.25;5028397;28;20025;-64
2023/06/28 07:09:43;;;;;;;7.15;2.25;;;;;;;19.28;100.00;98980.25;5029098;28;20119;-69
2023/06/28 07:12:09;;;;;;;6.18;2.35;;;;;;;19.41;100.00;98979.88;5030006;28;20037;-64
2023/06/28 07:14:35;;;;;;;5.50;2.50;;;;;;;19.67;100.00;98978.25;5026225;28;20341;-64
2023/06/28 07:17:00;;;;;;;4.07;2.25;;;;;;;19.53;100.00;98987.13;5039808;28;20041;-67
2023/06/28 07:19:25;;;;;;;4.95;2.53;;;;;;;19.59;100.00;98986.91;5034022;28;20021;-64
2023/06/28 07:21:51;;;;;;;5.93;2.33;;;;;;;19.86;100.00;98988.91;5050707;28;20033;-64
2023/06/28 07:24:16;;;;;;;5.55;2.15;;;;;;;20.19;100.00;98985.06;5031124;28;20401;-64
2023/06/28 07:26:42;;;;;;;7.00;2.33;;;;;;;20.56;100.00;98987.03;5028318;28;20083;-67
2023/06/28 07:29:07;;;;;;;4.65;1.75;;;;;;;20.97;100.00;98990.03;5026576;28;20037;-64
2023/06/28 07:31:33;;;;;;;9.82;2.33;;;;;;;20.91;100.00;98991.94;5028455;28;20103;-64
2023/06/28 07:33:58;;;;;;;6.45;2.45;;;;;;;20.77;100.00;98991.56;5017602;28;20030;-64
2023/06/28 07:36:25;;;;;;;6.68;1.98;;;;;;;21.10;100.00;98995.06;5029628;28;20445;-64
2023/06/28 07:38:50;;;;;;;6.25;2.00;;;;;;;21.50;100.00;98998.28;5022617;28;20025;-64
2023/06/28 07:41:17;;;;;;;5.68;2.45;;;;;;;21.54;100.00;98993.91;5029547;28;20026;-64
2023/06/28 07:43:42;;;;;;;5.50;1.80;;;;;;;21.81;100.00;98993.69;5029306;28;20108;-64
2023/06/28 07:46:08;;;;;;;5.63;2.15;;;;;;;22.01;100.00;98987.38;5025891;28;20029;-64
2023/06/28 07:48:34;;;;;;;6.82;2.10;;;;;;;22.35;100.00;98984.97;5029633;28;20067;-65
2023/06/28 07:50:59;;;;;;;5.07;2.20;;;;;;;22.35;100.00;98987.72;5029860;28;20048;-65
2023/06/28 07:53:24;;;;;;;9.52;2.42;;;;;;;22.06;100.00;98990.97;5031073;28;20068;-65
2023/06/28 07:55:50;;;;;;;5.28;2.33;;;;;;;22.40;100.00;98992.38;5025411;28;20018;-64
2023/06/28 07:58:16;;;;;;;4.65;2.08;;;;;;;22.72;100.00;98981.88;5022758;28;20030;-65
2023/06/28 08:00:41;;;;;;;3.28;1.92;;;;;;;23.38;100.00;98994.66;5026811;28;20040;-64
2023/06/28 08:03:06;;;;;;;4.95;1.80;;;;;;;23.52;100.00;98994.03;5028901;28;20030;-65
2023/06/28 08:05:32;;;;;;;4.90;1.90;;;;;;;23.47;100.00;98986.59;5025175;28;20024;-65
2023/06/28 08:07:57;;;;;;;6.78;1.50;;;;;;;24.25;100.00;98985.84;5022470;28;20098;-65
2023/06/28 08:10:25;;;;;;;5.35;1.85;;;;;;;24.39;88.84;98986.03;5027271;28;20036;-65
2023/06/28 08:12:51;;;;;;;7.03;1.40;;;;;;;24.83;90.23;98984.25;5030069;28;20048;-65
2023/06/28 08:15:18;;;;;;;3.53;1.60;;;;;;;25.28;85.86;98974.66;5034792;28;20389;-65
2023/06/28 08:17:43;;;;;;;8.25;1.60;;;;;;;25.64;75.49;98971.38;5019790;28;20113;-64
2023/06/28 08:20:09;;;;;;;3.40;1.50;;;;;;;25.55;70.83;98982.31;5027605;28;20033;-65
2023/06/28 08:22:34;;;;;;;5.32;1.60;;;;;;;25.94;70.59;98970.16;5030227;28;20400;-65
2023/06/28 08:25:00;;;;;;;3.63;1.55;;;;;;;26.18;69.78;98972.81;5027400;28;20384;-65
2023/06/28 08:27:25;;;;;;;4.78;1.80;;;;;;;27.53;65.98;98970.03;5028115;28;20022;-65
2023/06/28 08:29:50;;;;;;;3.63;1.25;;;;;;;28.78;62.77;98953.69;5032933;28;20112;-64
2023/06/28 08:32:16;;;;;;;4.82;1.70;;;;;;;30.06;56.97;98967.50;5025674;28;20033;-64
2023/06/28 08:34:41;;;;;;;3.55;1.48;;;;;;;29.37;55.63;98961.78;5034370;28;20029;-66
2023/06/28 08:37:08;;;;;;;3.80;1.30;;;;;;;29.81;56.66;98971.91;5034356;28;20110;-65
2023/06/28 08:39:33;;;;;;;4.60;1.52;;;;;;;29.86;54.84;98965.34;5045664;22;20499;-77
2023/06/28 08:42:01;;;;;;;5.13;1.45;;;;;;;29.98;53.49;98970.28;5046977;28;20033;-78
2023/06/28 08:44:31;;;;;;;8.65;1.40;;;;;;;30.72;52.09;98956.06;5055823;28;20020;-78
2023/06/28 08:46:59;;;;;;;3.90;1.27;;;;;;;31.40;49.86;98970.13;5029966;28;20028;-79
2023/06/28 08:49:24;;;;;;;5.68;1.60;;;;;;;31.62;46.41;98968.19;5040443;28;20031;-76
2023/06/28 08:51:50;;;;;;;2.92;1.00;;;;;;;33.33;45.74;98956.81;5055161;28;20029;-77
2023/06/28 08:54:15;;;;;;;3.17;1.02;;;;;;;31.37;43.85;98958.78;5054309;28;20648;-75
2023/06/28 08:56:41;;;;;;;3.08;1.35;;;;;;;30.72;46.80;98953.28;5052088;28;20028;-75
2023/06/28 08:59:08;;;;;;;5.50;1.33;;;;;;;30.02;47.44;98958.13;5035961;28;20033;-77
2023/06/28 09:01:35;;;;;;;3.90;1.20;;;;;;;31.69;45.54;98956.47;5034739;28;20028;-72
2023/06/28 09:04:03;;;;;;;4.20;1.20;;;;;;;34.30;42.87;98956.13;5052773;28;20429;-72
2023/06/28 09:06:29;;;;;;;4.10;1.10;;;;;;;36.15;39.00;98947.91;5038356;28;20021;-73
2023/06/28 09:08:55;;;;;;;3.22;1.05;;;;;;;36.51;37.58;98957.06;5047710;28;20042;-72
2023/06/28 09:11:20;;;;;;;4.28;1.17;;;;;;;37.83;34.66;98948.00;5053804;28;20051;-73
2023/06/28 09:13:46;;;;;;;3.58;1.17;;;;;;;39.43;33.15;98936.00;5054240;28;20112;-72
2023/06/28 09:16:11;;;;;;;3.15;1.20;;;;;;;40.25;32.43;98941.34;5032385;28;20016;-72
2023/06/28 09:18:37;;;;;;;4.97;1.13;;;;;;;40.22;31.54;98939.28;5052496;28;20052;-72
2023/06/28 09:21:03;;;;;;;5.07;1.42;;;;;;;40.77;30.51;98939.06;5053220;28;20037;-73
2023/06/28 09:23:30;;;;;;;2.67;1.20;;;;;;;41.08;29.84;98934.59;5037216;28;20432;-72
2023/06/28 09:25:56;;;;;;;3.58;1.35;;;;;;;37.70;31.06;98940.97;5047316;28;20147;-72
2023/06/28 09:28:32;;;;;;;2.95;1.10;;;;;;;38.88;32.37;98938.75;5046502;28;20120;-72
2023/06/28 09:30:58;;;;;;;3.90;1.30;;;;;;;39.44;30.67;98935.63;5046967;28;20475;-72
2023/06/28 09:33:24;;;;;;;3.90;0.95;;;;;;;37.32;31.39;98950.47;5029207;28;20025;-73
2023/06/28 09:35:56;;;;;;;3.92;1.13;;;;;;;37.70;32.41;98943.78;5049635;28;20482;-72
2023/06/28 09:38:22;;;;;;;3.67;1.23;;;;;;;34.99;34.84;98928.72;5047944;28;20020;-72
2023/06/28 09:40:55;;;;;;;5.13;1.08;;;;;;;34.44;34.59;98937.69;5031277;28;20086;-73
2023/06/28 09:43:21;;;;;;;3.00;1.00;;;;;;;32.41;37.19;98935.63;5052797;28;20072;-73
2023/06/28 09:45:47;;;;;;;3.28;1.10;;;;;;;31.54;38.20;98943.91;5052945;28;20036;-73
2023/06/28 09:48:12;;;;;;;4.25;1.10;;;;;;;30.86;38.97;98947.50;5052081;28;20033;-73
2023/06/28 09:50:40;;;;;;;2.77;1.30;;;;;;;30.51;41.53;98938.41;5048542;28;20103;-73
2023/06/28 09:53:19;;;;;;;6.30;1.75;;;;;;;29.47;41.83;98928.88;5052969;28;20946;-72
2023/06/28 09:55:46;;;;;;;7.75;1.52;;;;;;;29.57;42.38;98929.72;5038367;28;20196;-72
2023/06/28 09:58:14;;;;;;;3.30;1.20;;;;;;;29.19;42.26;98925.53;5032060;28;20115;-72
2023/06/28 10:00:42;;;;;;;4.70;1.30;;;;;;;28.33;42.29;98945.41;5049257;28;20035;-73
2023/06/28 10:03:09;;;;;;;4.63;1.30;;;;;;;28.13;43.58;98950.31;5033520;28;20033;-72
2023/06/28 10:05:37;;;;;;;3.05;1.08;;;;;;;28.44;43.05;98944.00;5034896;28;20079;-72
2023/06/28 10:08:06;;;;;;;5.57;1.58;;;;;;;28.74;42.50;98944.31;5047535;28;20043;-72
2023/06/28 10:10:34;;;;;;;4.38;1.30;;;;;;;31.32;39.51;98931.03;5044915;28;20021;-73
2023/06/28 10:13:01;;;;;;;2.38;1.20;;;;;;;30.74;39.26;98923.06;5047136;28;20033;-73
2023/06/28 10:15:31;;;;;;;4.95;1.55;;;;;;;30.35;39.91;98921.34;5039914;28;20131;-72
2023/06/28 10:17:57;;;;;;;6.55;1.15;;;;;;;30.02;41.61;98924.66;5049674;28;20028;-73
2023/06/28 10:20:22;;;;;;;2.78;1.10;;;;;;;31.78;39.19;98926.44;5050066;28;20045;-73
2023/06/28 10:22:48;;;;;;;4.65;1.27;;;;;;;34.73;35.07;98920.81;5047156;28;20037;-73
2023/06/28 10:25:13;;;;;;;5.50;1.10;;;;;;;37.28;32.14;98916.53;5047230;28;20029;-74
2023/06/28 10:27:39;;;;;;;4.55;1.13;;;;;;;37.66;31.43;98920.34;5050558;28;20490;-74
2023/06/28 10:30:05;;;;;;;6.50;1.23;;;;;;;37.72;30.75;98913.97;5030104;28;20061;-74
2023/06/28 10:32:31;;;;;;;5.88;1.20;;;;;;;39.69;29.25;98915.13;5030120;28;20020;-74
2023/06/28 10:34:59;;;;;;;3.17;1.38;;;;;;;40.22;28.68;98914.59;5051497;28;20432;-73
2023/06/28 10:37:25;;;;;;;6.78;1.20;;;;;;;39.92;28.33;98908.38;5049520;28;20032;-74
2023/06/28 10:39:52;;;;;;;2.92;1.13;;;;;;;38.84;29.63;98921.75;5051153;28;20040;-74
2023/06/28 10:42:20;;;;;;;4.70;1.10;;;;;;;37.34;29.86;98886.00;5043641;28;20020;-74
2023/06/28 10:44:57;;;;;;;4.15;1.42;;;;;;;35.49;31.57;98902.59;5052608;28;20112;-73
2023/06/28 10:47:24;;;;;;;6.25;1.20;;;;;;;36.43;31.09;98916.66;5061937;28;20032;-74
2023/06/28 10:50:05;;;;;;;3.30;1.30;;;;;;;37.56;29.76;98915.38;5047088;28;20017;-74
2023/06/28 10:52:31;;;;;;;6.00;1.70;;;;;;;38.37;29.85;98914.78;5034585;28;20024;-73
2023/06/28 10:54:56;;;;;;;4.03;1.02;;;;;;;41.00;29.38;98903.78;5055486;28;20032;-74
2023/06/28 10:57:36;;;;;;;3.35;1.17;;;;;;;42.73;26.51;98905.63;5032148;28;20071;-74
2023/06/28 11:00:29;;;;;;;3.03;1.20;;;;;;;42.68;25.92;98901.22;5069914;28;20082;-74
2023/06/28 11:03:00;;;;;;;4.38;1.13;;;;;;;40.24;28.33;98897.97;5032824;28;20021;-74
2023/06/28 11:05:44;;;;;;;4.57;1.35;;;;;;;37.11;30.01;98900.16;5053759;28;20032;-73
2023/06/28 11:08:10;;;;;;;3.85;1.10;;;;;;;37.56;30.52;98909.72;5032555;28;20027;-73
2023/06/28 11:10:47;;;;;;;8.93;1.35;;;;;;;39.09;28.55;98890.03;5040855;28;20470;-73
2023/06/28 11:13:29;;;;;;;3.63;1.17;;;;;;;39.00;29.25;98885.53;5046822;28;20083;-73
2023/06/28 11:16:05;;;;;;;2.35;0.98;;;;;;;41.27;27.79;98899.34;5050025;28;20060;-74
2023/06/28 11:18:30;;;;;;;2.80;1.20;;;;;;;39.47;27.83;98897.22;5032844;28;20431;-76
2023/06/28 11:20:59;;;;;;;4.25;1.23;;;;;;;36.85;29.30;98888.44;5056282;28;20044;-77
2023/06/28 11:23:34;;;;;;;3.47;1.20;;;;;;;33.81;32.62;98896.19;5028976;28;20025;-76